sensor_id;sensor_type;location;lat;lon;timestamp;P1;durP1;ratioP1;P2;durP2;ratioP2
12625;SDS011;6378;42.684;23.372;2024-01-07T00:01:45;37.90;;;26.33;;
12625;SDS011;6378;42.684;23.372;2024-01-07T00:04:11;37.63;;;27.10;;
12625;SDS011;6378;42.684;23.372;2024-01-07T00:06:37;41.47;;;27.20;;
12625;SDS011;6378;42.684;23.372;2024-01-07T00:09:02;36.53;;;24.53;;
12625;SDS011;6378;42.684;23.372;2024-01-07T00:11:46;35.63;;;23.57;;
12625;SDS011;6378;42.684;23.372;2024-01-07T00:14:12;26.73;;;19.17;;
12625;SDS011;6378;42.684;23.372;2024-01-07T00:16:37;38.73;;;23.67;;
12625;SDS011;6378;42.684;23.372;2024-01-07T00:19:05;30.87;;;21.70;;
12625;SDS011;6378;42.684;23.372;2024-01-07T00:21:30;24.43;;;17.80;;
12625;SDS011;6378;42.684;23.372;2024-01-07T00:23:56;26.67;;;18.00;;
12625;SDS011;6378;42.684;23.372;2024-01-07T00:26:21;16.03;;;10.70;;
12625;SDS011;6378;42.684;23.372;2024-01-07T00:28:47;33.87;;;23.60;;
12625;SDS011;6378;42.684;23.372;2024-01-07T00:31:12;35.70;;;25.33;;
12625;SDS011;6378;42.684;23.372;2024-01-07T00:33:38;36.63;;;25.40;;
12625;SDS011;6378;42.684;23.372;2024-01-07T00:36:03;34.23;;;22.63;;
12625;SDS011;6378;42.684;23.372;2024-01-07T00:38:29;25.90;;;17.37;;
12625;SDS011;6378;42.684;23.372;2024-01-07T00:40:54;35.73;;;25.47;;
12625;SDS011;6378;42.684;23.372;2024-01-07T00:43:20;37.47;;;25.60;;
12625;SDS011;6378;42.684;23.372;2024-01-07T00:45:45;38.93;;;25.97;;
12625;SDS011;6378;42.684;23.372;2024-01-07T00:48:12;41.77;;;27.37;;
12625;SDS011;6378;42.684;23.372;2024-01-07T00:50:38;35.93;;;25.90;;
12625;SDS011;6378;42.684;23.372;2024-01-07T00:53:04;37.97;;;26.47;;
12625;SDS011;6378;42.684;23.372;2024-01-07T00:55:29;39.47;;;26.23;;
12625;SDS011;6378;42.684;23.372;2024-01-07T00:57:55;40.37;;;26.63;;
12625;SDS011;6378;42.684;23.372;2024-01-07T01:00:20;39.20;;;26.30;;
12625;SDS011;6378;42.684;23.372;2024-01-07T01:02:47;36.83;;;25.53;;
12625;SDS011;6378;42.684;23.372;2024-01-07T01:05:12;34.47;;;24.50;;
12625;SDS011;6378;42.684;23.372;2024-01-07T01:07:38;37.03;;;25.10;;
12625;SDS011;6378;42.684;23.372;2024-01-07T01:10:03;33.00;;;24.27;;
12625;SDS011;6378;42.684;23.372;2024-01-07T01:12:29;36.60;;;25.10;;
12625;SDS011;6378;42.684;23.372;2024-01-07T01:14:55;36.17;;;25.60;;
12625;SDS011;6378;42.684;23.372;2024-01-07T01:17:20;35.13;;;25.47;;
12625;SDS011;6378;42.684;23.372;2024-01-07T01:19:46;40.00;;;25.20;;
12625;SDS011;6378;42.684;23.372;2024-01-07T01:22:11;38.20;;;25.67;;
12625;SDS011;6378;42.684;23.372;2024-01-07T01:24:37;34.23;;;23.60;;
12625;SDS011;6378;42.684;23.372;2024-01-07T01:27:03;36.20;;;23.77;;
12625;SDS011;6378;42.684;23.372;2024-01-07T01:29:28;34.73;;;24.60;;
12625;SDS011;6378;42.684;23.372;2024-01-07T01:31:54;31.27;;;24.53;;
12625;SDS011;6378;42.684;23.372;2024-01-07T01:34:19;34.40;;;24.57;;
12625;SDS011;6378;42.684;23.372;2024-01-07T01:36:45;36.80;;;24.77;;
12625;SDS011;6378;42.684;23.372;2024-01-07T01:39:10;33.17;;;24.00;;
12625;SDS011;6378;42.684;23.372;2024-01-07T01:41:36;37.13;;;24.20;;
12625;SDS011;6378;42.684;23.372;2024-01-07T01:44:02;33.90;;;23.47;;
12625;SDS011;6378;42.684;23.372;2024-01-07T01:46:28;38.53;;;23.43;;
12625;SDS011;6378;42.684;23.372;2024-01-07T01:48:55;37.30;;;23.73;;
12625;SDS011;6378;42.684;23.372;2024-01-07T01:51:21;34.10;;;24.17;;
12625;SDS011;6378;42.684;23.372;2024-01-07T01:53:47;36.93;;;24.30;;
12625;SDS011;6378;42.684;23.372;2024-01-07T01:56:14;35.77;;;23.67;;
12625;SDS011;6378;42.684;23.372;2024-01-07T01:58:42;34.47;;;23.63;;
12625;SDS011;6378;42.684;23.372;2024-01-07T02:01:08;38.40;;;23.60;;
12625;SDS011;6378;42.684;23.372;2024-01-07T02:03:33;36.07;;;24.27;;
12625;SDS011;6378;42.684;23.372;2024-01-07T02:05:59;33.07;;;22.93;;
12625;SDS011;6378;42.684;23.372;2024-01-07T02:08:24;35.27;;;23.50;;
12625;SDS011;6378;42.684;23.372;2024-01-07T02:10:50;34.87;;;22.67;;
12625;SDS011;6378;42.684;23.372;2024-01-07T02:13:16;35.47;;;24.40;;
12625;SDS011;6378;42.684;23.372;2024-01-07T02:15:42;34.53;;;23.73;;
12625;SDS011;6378;42.684;23.372;2024-01-07T02:18:08;32.53;;;24.67;;
12625;SDS011;6378;42.684;23.372;2024-01-07T02:20:34;32.80;;;22.43;;
12625;SDS011;6378;42.684;23.372;2024-01-07T02:23:01;33.20;;;23.73;;
12625;SDS011;6378;42.684;23.372;2024-01-07T02:25:27;30.80;;;20.50;;
12625;SDS011;6378;42.684;23.372;2024-01-07T02:27:52;25.00;;;17.73;;
12625;SDS011;6378;42.684;23.372;2024-01-07T02:30:18;35.20;;;22.67;;
12625;SDS011;6378;42.684;23.372;2024-01-07T02:32:43;34.20;;;22.30;;
12625;SDS011;6378;42.684;23.372;2024-01-07T02:35:09;29.30;;;19.27;;
12625;SDS011;6378;42.684;23.372;2024-01-07T02:37:34;31.97;;;22.13;;
12625;SDS011;6378;42.684;23.372;2024-01-07T02:40:00;25.90;;;18.40;;
12625;SDS011;6378;42.684;23.372;2024-01-07T02:42:25;28.50;;;21.13;;
12625;SDS011;6378;42.684;23.372;2024-01-07T02:44:51;29.13;;;19.43;;
12625;SDS011;6378;42.684;23.372;2024-01-07T02:47:16;30.03;;;20.97;;
12625;SDS011;6378;42.684;23.372;2024-01-07T02:49:42;30.53;;;21.90;;
12625;SDS011;6378;42.684;23.372;2024-01-07T02:52:07;27.63;;;21.47;;
12625;SDS011;6378;42.684;23.372;2024-01-07T02:54:33;35.40;;;23.37;;
12625;SDS011;6378;42.684;23.372;2024-01-07T02:56:58;33.43;;;22.63;;
12625;SDS011;6378;42.684;23.372;2024-01-07T02:59:23;32.23;;;21.93;;
12625;SDS011;6378;42.684;23.372;2024-01-07T03:01:49;29.47;;;22.00;;
12625;SDS011;6378;42.684;23.372;2024-01-07T03:04:15;31.33;;;21.20;;
12625;SDS011;6378;42.684;23.372;2024-01-07T03:06:41;30.87;;;21.60;;
12625;SDS011;6378;42.684;23.372;2024-01-07T03:09:06;30.57;;;20.70;;
12625;SDS011;6378;42.684;23.372;2024-01-07T03:11:32;28.33;;;20.97;;
12625;SDS011;6378;42.684;23.372;2024-01-07T03:13:58;33.00;;;22.00;;
12625;SDS011;6378;42.684;23.372;2024-01-07T03:16:24;28.73;;;21.70;;
12625;SDS011;6378;42.684;23.372;2024-01-07T03:18:51;33.20;;;22.03;;
12625;SDS011;6378;42.684;23.372;2024-01-07T03:21:20;29.80;;;22.03;;
12625;SDS011;6378;42.684;23.372;2024-01-07T03:23:47;27.87;;;21.47;;
12625;SDS011;6378;42.684;23.372;2024-01-07T03:26:13;28.37;;;21.53;;
12625;SDS011;6378;42.684;23.372;2024-01-07T03:28:39;27.90;;;21.30;;
12625;SDS011;6378;42.684;23.372;2024-01-07T03:31:07;32.13;;;22.07;;
12625;SDS011;6378;42.684;23.372;2024-01-07T03:33:34;30.70;;;22.40;;
12625;SDS011;6378;42.684;23.372;2024-01-07T03:36:00;32.13;;;21.87;;
12625;SDS011;6378;42.684;23.372;2024-01-07T03:38:26;29.50;;;21.60;;
12625;SDS011;6378;42.684;23.372;2024-01-07T03:40:51;34.27;;;21.73;;
12625;SDS011;6378;42.684;23.372;2024-01-07T03:43:17;28.03;;;20.83;;
12625;SDS011;6378;42.684;23.372;2024-01-07T03:45:42;28.53;;;20.13;;
12625;SDS011;6378;42.684;23.372;2024-01-07T03:48:08;28.43;;;19.33;;
12625;SDS011;6378;42.684;23.372;2024-01-07T03:50:34;28.73;;;19.63;;
12625;SDS011;6378;42.684;23.372;2024-01-07T03:52:59;25.40;;;17.93;;
12625;SDS011;6378;42.684;23.372;2024-01-07T03:55:25;24.03;;;17.73;;
12625;SDS011;6378;42.684;23.372;2024-01-07T03:57:50;23.53;;;16.93;;
12625;SDS011;6378;42.684;23.372;2024-01-07T04:00:16;24.87;;;17.37;;
12625;SDS011;6378;42.684;23.372;2024-01-07T04:02:42;24.77;;;18.37;;
12625;SDS011;6378;42.684;23.372;2024-01-07T04:05:08;23.27;;;17.07;;
12625;SDS011;6378;42.684;23.372;2024-01-07T04:07:34;25.27;;;16.93;;
12625;SDS011;6378;42.684;23.372;2024-01-07T04:10:00;22.67;;;16.33;;
12625;SDS011;6378;42.684;23.372;2024-01-07T04:12:25;21.70;;;16.17;;
12625;SDS011;6378;42.684;23.372;2024-01-07T04:14:51;21.20;;;15.17;;
12625;SDS011;6378;42.684;23.372;2024-01-07T04:17:16;25.30;;;16.67;;
12625;SDS011;6378;42.684;23.372;2024-01-07T04:19:42;18.83;;;14.83;;
12625;SDS011;6378;42.684;23.372;2024-01-07T04:22:07;18.30;;;13.50;;
12625;SDS011;6378;42.684;23.372;2024-01-07T04:24:33;16.37;;;12.27;;
12625;SDS011;6378;42.684;23.372;2024-01-07T04:26:58;14.93;;;11.37;;
12625;SDS011;6378;42.684;23.372;2024-01-07T04:29:23;17.97;;;12.30;;
12625;SDS011;6378;42.684;23.372;2024-01-07T04:31:49;16.73;;;11.60;;
12625;SDS011;6378;42.684;23.372;2024-01-07T04:34:14;18.77;;;13.30;;
12625;SDS011;6378;42.684;23.372;2024-01-07T04:36:40;18.77;;;13.90;;
12625;SDS011;6378;42.684;23.372;2024-01-07T04:39:05;16.67;;;11.73;;
12625;SDS011;6378;42.684;23.372;2024-01-07T04:41:31;12.40;;;10.30;;
12625;SDS011;6378;42.684;23.372;2024-01-07T04:43:57;15.80;;;12.97;;
12625;SDS011;6378;42.684;23.372;2024-01-07T04:46:22;15.93;;;10.80;;
12625;SDS011;6378;42.684;23.372;2024-01-07T04:48:48;13.27;;;10.37;;
12625;SDS011;6378;42.684;23.372;2024-01-07T04:51:13;15.23;;;11.47;;
12625;SDS011;6378;42.684;23.372;2024-01-07T04:53:39;18.80;;;12.57;;
12625;SDS011;6378;42.684;23.372;2024-01-07T04:56:05;22.17;;;15.27;;
12625;SDS011;6378;42.684;23.372;2024-01-07T04:58:30;18.73;;;15.07;;
12625;SDS011;6378;42.684;23.372;2024-01-07T05:00:56;23.67;;;16.43;;
12625;SDS011;6378;42.684;23.372;2024-01-07T05:03:21;25.67;;;17.00;;
12625;SDS011;6378;42.684;23.372;2024-01-07T05:05:47;22.10;;;16.53;;
12625;SDS011;6378;42.684;23.372;2024-01-07T05:08:12;29.00;;;19.87;;
12625;SDS011;6378;42.684;23.372;2024-01-07T05:10:38;24.77;;;17.10;;
12625;SDS011;6378;42.684;23.372;2024-01-07T05:13:03;26.27;;;18.10;;
12625;SDS011;6378;42.684;23.372;2024-01-07T05:15:31;26.13;;;18.13;;
12625;SDS011;6378;42.684;23.372;2024-01-07T05:17:56;23.53;;;17.07;;
12625;SDS011;6378;42.684;23.372;2024-01-07T05:20:21;26.20;;;18.17;;
12625;SDS011;6378;42.684;23.372;2024-01-07T05:22:47;25.17;;;17.27;;
12625;SDS011;6378;42.684;23.372;2024-01-07T05:25:12;23.77;;;17.20;;
12625;SDS011;6378;42.684;23.372;2024-01-07T05:27:38;24.00;;;18.23;;
12625;SDS011;6378;42.684;23.372;2024-01-07T05:30:04;25.80;;;18.37;;
12625;SDS011;6378;42.684;23.372;2024-01-07T05:33:17;26.53;;;18.47;;
12625;SDS011;6378;42.684;23.372;2024-01-07T05:35:42;28.37;;;19.50;;
12625;SDS011;6378;42.684;23.372;2024-01-07T05:38:08;28.90;;;19.53;;
12625;SDS011;6378;42.684;23.372;2024-01-07T05:40:33;26.47;;;19.30;;
12625;SDS011;6378;42.684;23.372;2024-01-07T05:42:58;27.23;;;19.37;;
12625;SDS011;6378;42.684;23.372;2024-01-07T05:45:24;25.23;;;19.20;;
12625;SDS011;6378;42.684;23.372;2024-01-07T05:47:49;24.77;;;18.23;;
12625;SDS011;6378;42.684;23.372;2024-01-07T05:50:15;26.23;;;19.37;;
12625;SDS011;6378;42.684;23.372;2024-01-07T05:52:43;24.67;;;19.57;;
12625;SDS011;6378;42.684;23.372;2024-01-07T05:55:10;27.23;;;19.27;;
12625;SDS011;6378;42.684;23.372;2024-01-07T05:57:35;26.20;;;19.17;;
12625;SDS011;6378;42.684;23.372;2024-01-07T06:00:01;27.50;;;18.73;;
12625;SDS011;6378;42.684;23.372;2024-01-07T06:02:26;27.47;;;19.77;;
12625;SDS011;6378;42.684;23.372;2024-01-07T06:04:52;26.27;;;17.37;;
12625;SDS011;6378;42.684;23.372;2024-01-07T06:07:17;24.00;;;18.07;;
12625;SDS011;6378;42.684;23.372;2024-01-07T06:09:42;27.37;;;17.83;;
12625;SDS011;6378;42.684;23.372;2024-01-07T06:12:08;23.37;;;18.20;;
12625;SDS011;6378;42.684;23.372;2024-01-07T06:14:33;22.70;;;16.27;;
12625;SDS011;6378;42.684;23.372;2024-01-07T06:16:59;26.53;;;17.60;;
12625;SDS011;6378;42.684;23.372;2024-01-07T06:19:25;22.80;;;17.43;;
12625;SDS011;6378;42.684;23.372;2024-01-07T06:21:51;23.67;;;17.17;;
12625;SDS011;6378;42.684;23.372;2024-01-07T06:24:16;22.80;;;18.00;;
12625;SDS011;6378;42.684;23.372;2024-01-07T06:26:42;24.67;;;17.40;;
12625;SDS011;6378;42.684;23.372;2024-01-07T06:29:08;20.60;;;15.67;;
12625;SDS011;6378;42.684;23.372;2024-01-07T06:31:34;23.90;;;16.43;;
12625;SDS011;6378;42.684;23.372;2024-01-07T06:34:00;21.60;;;17.03;;
12625;SDS011;6378;42.684;23.372;2024-01-07T06:36:26;25.17;;;17.70;;
12625;SDS011;6378;42.684;23.372;2024-01-07T06:38:51;21.50;;;17.33;;
12625;SDS011;6378;42.684;23.372;2024-01-07T06:41:17;23.53;;;17.53;;
12625;SDS011;6378;42.684;23.372;2024-01-07T06:43:43;27.00;;;17.47;;
12625;SDS011;6378;42.684;23.372;2024-01-07T06:46:09;25.17;;;17.27;;
12625;SDS011;6378;42.684;23.372;2024-01-07T06:48:35;21.80;;;16.97;;
12625;SDS011;6378;42.684;23.372;2024-01-07T06:51:00;22.33;;;17.30;;
12625;SDS011;6378;42.684;23.372;2024-01-07T06:53:26;22.07;;;16.60;;
12625;SDS011;6378;42.684;23.372;2024-01-07T06:55:51;25.20;;;17.50;;
12625;SDS011;6378;42.684;23.372;2024-01-07T06:58:17;22.13;;;16.83;;
12625;SDS011;6378;42.684;23.372;2024-01-07T07:00:42;22.27;;;16.83;;
12625;SDS011;6378;42.684;23.372;2024-01-07T07:03:08;25.20;;;17.37;;
12625;SDS011;6378;42.684;23.372;2024-01-07T07:05:34;26.07;;;17.20;;
12625;SDS011;6378;42.684;23.372;2024-01-07T07:07:59;20.13;;;14.60;;
12625;SDS011;6378;42.684;23.372;2024-01-07T07:10:25;23.23;;;18.00;;
12625;SDS011;6378;42.684;23.372;2024-01-07T07:12:50;19.57;;;14.80;;
12625;SDS011;6378;42.684;23.372;2024-01-07T07:15:16;20.50;;;14.93;;
12625;SDS011;6378;42.684;23.372;2024-01-07T07:17:42;20.33;;;15.40;;
12625;SDS011;6378;42.684;23.372;2024-01-07T07:20:08;20.70;;;14.73;;
12625;SDS011;6378;42.684;23.372;2024-01-07T07:22:34;16.30;;;13.67;;
12625;SDS011;6378;42.684;23.372;2024-01-07T07:24:59;22.27;;;15.07;;
12625;SDS011;6378;42.684;23.372;2024-01-07T07:27:25;24.00;;;15.10;;
12625;SDS011;6378;42.684;23.372;2024-01-07T07:29:50;24.83;;;16.30;;
12625;SDS011;6378;42.684;23.372;2024-01-07T07:32:16;19.97;;;15.33;;
12625;SDS011;6378;42.684;23.372;2024-01-07T07:34:41;19.13;;;14.80;;
12625;SDS011;6378;42.684;23.372;2024-01-07T07:37:07;20.50;;;14.33;;
12625;SDS011;6378;42.684;23.372;2024-01-07T07:39:32;23.43;;;15.77;;
12625;SDS011;6378;42.684;23.372;2024-01-07T07:41:58;21.40;;;15.63;;
12625;SDS011;6378;42.684;23.372;2024-01-07T07:44:23;30.27;;;22.50;;
12625;SDS011;6378;42.684;23.372;2024-01-07T07:46:49;25.33;;;20.40;;
12625;SDS011;6378;42.684;23.372;2024-01-07T07:49:15;20.43;;;15.13;;
12625;SDS011;6378;42.684;23.372;2024-01-07T07:51:41;19.67;;;14.77;;
12625;SDS011;6378;42.684;23.372;2024-01-07T07:54:08;23.40;;;16.77;;
12625;SDS011;6378;42.684;23.372;2024-01-07T07:56:34;19.57;;;14.97;;
12625;SDS011;6378;42.684;23.372;2024-01-07T07:59:00;21.23;;;13.77;;
12625;SDS011;6378;42.684;23.372;2024-01-07T08:01:26;18.40;;;13.90;;
12625;SDS011;6378;42.684;23.372;2024-01-07T08:03:52;17.77;;;13.43;;
12625;SDS011;6378;42.684;23.372;2024-01-07T08:06:18;25.37;;;17.43;;
12625;SDS011;6378;42.684;23.372;2024-01-07T08:08:43;24.33;;;17.90;;
12625;SDS011;6378;42.684;23.372;2024-01-07T08:11:08;30.93;;;22.40;;
12625;SDS011;6378;42.684;23.372;2024-01-07T08:13:35;43.27;;;28.43;;
12625;SDS011;6378;42.684;23.372;2024-01-07T08:16:01;34.43;;;25.10;;
12625;SDS011;6378;42.684;23.372;2024-01-07T08:18:27;55.60;;;38.43;;
12625;SDS011;6378;42.684;23.372;2024-01-07T08:20:52;53.40;;;35.10;;
12625;SDS011;6378;42.684;23.372;2024-01-07T08:23:18;56.60;;;37.60;;
12625;SDS011;6378;42.684;23.372;2024-01-07T08:25:43;62.80;;;44.27;;
12625;SDS011;6378;42.684;23.372;2024-01-07T08:28:10;67.50;;;47.17;;
12625;SDS011;6378;42.684;23.372;2024-01-07T08:30:36;51.07;;;35.50;;
12625;SDS011;6378;42.684;23.372;2024-01-07T08:33:01;42.23;;;33.00;;
12625;SDS011;6378;42.684;23.372;2024-01-07T08:35:27;46.60;;;33.70;;
12625;SDS011;6378;42.684;23.372;2024-01-07T08:37:52;47.07;;;34.53;;
12625;SDS011;6378;42.684;23.372;2024-01-07T08:40:18;41.93;;;31.73;;
12625;SDS011;6378;42.684;23.372;2024-01-07T08:42:44;41.93;;;31.03;;
12625;SDS011;6378;42.684;23.372;2024-01-07T08:45:10;32.97;;;24.23;;
12625;SDS011;6378;42.684;23.372;2024-01-07T08:47:36;35.63;;;24.60;;
12625;SDS011;6378;42.684;23.372;2024-01-07T08:50:02;27.10;;;21.17;;
12625;SDS011;6378;42.684;23.372;2024-01-07T08:52:28;29.00;;;21.80;;
12625;SDS011;6378;42.684;23.372;2024-01-07T08:54:54;26.53;;;20.97;;
12625;SDS011;6378;42.684;23.372;2024-01-07T08:57:20;28.83;;;23.07;;
12625;SDS011;6378;42.684;23.372;2024-01-07T08:59:46;27.33;;;21.17;;
12625;SDS011;6378;42.684;23.372;2024-01-07T09:02:11;23.60;;;19.43;;
12625;SDS011;6378;42.684;23.372;2024-01-07T09:04:37;26.07;;;19.47;;
12625;SDS011;6378;42.684;23.372;2024-01-07T09:07:03;25.43;;;19.43;;
12625;SDS011;6378;42.684;23.372;2024-01-07T09:09:28;23.73;;;18.63;;
12625;SDS011;6378;42.684;23.372;2024-01-07T09:11:54;24.90;;;18.27;;
12625;SDS011;6378;42.684;23.372;2024-01-07T09:14:21;22.30;;;18.07;;
12625;SDS011;6378;42.684;23.372;2024-01-07T09:16:47;23.73;;;18.17;;
12625;SDS011;6378;42.684;23.372;2024-01-07T09:19:12;22.80;;;17.77;;
12625;SDS011;6378;42.684;23.372;2024-01-07T09:21:38;19.83;;;15.70;;
12625;SDS011;6378;42.684;23.372;2024-01-07T09:24:04;17.00;;;13.30;;
12625;SDS011;6378;42.684;23.372;2024-01-07T09:26:30;14.20;;;11.82;;
12625;SDS011;6378;42.684;23.372;2024-01-07T09:28:56;18.43;;;14.87;;
12625;SDS011;6378;42.684;23.372;2024-01-07T09:31:22;14.03;;;11.40;;
12625;SDS011;6378;42.684;23.372;2024-01-07T09:33:47;15.10;;;11.80;;
12625;SDS011;6378;42.684;23.372;2024-01-07T09:36:13;14.43;;;11.87;;
12625;SDS011;6378;42.684;23.372;2024-01-07T09:38:39;16.33;;;11.57;;
12625;SDS011;6378;42.684;23.372;2024-01-07T09:41:05;13.43;;;11.03;;
12625;SDS011;6378;42.684;23.372;2024-01-07T09:43:30;17.00;;;11.85;;
12625;SDS011;6378;42.684;23.372;2024-01-07T09:45:56;16.17;;;12.70;;
12625;SDS011;6378;42.684;23.372;2024-01-07T09:48:23;18.23;;;13.43;;
12625;SDS011;6378;42.684;23.372;2024-01-07T09:50:49;16.80;;;12.68;;
12625;SDS011;6378;42.684;23.372;2024-01-07T09:53:16;12.13;;;9.60;;
12625;SDS011;6378;42.684;23.372;2024-01-07T09:58:29;21.53;;;17.03;;
12625;SDS011;6378;42.684;23.372;2024-01-07T10:00:54;24.25;;;18.63;;
12625;SDS011;6378;42.684;23.372;2024-01-07T10:03:20;16.57;;;14.17;;
12625;SDS011;6378;42.684;23.372;2024-01-07T10:05:46;15.15;;;12.38;;
12625;SDS011;6378;42.684;23.372;2024-01-07T10:08:11;13.95;;;12.45;;
12625;SDS011;6378;42.684;23.372;2024-01-07T10:10:37;15.68;;;11.77;;
12625;SDS011;6378;42.684;23.372;2024-01-07T10:13:03;12.32;;;9.80;;
12625;SDS011;6378;42.684;23.372;2024-01-07T10:15:28;13.48;;;10.90;;
12625;SDS011;6378;42.684;23.372;2024-01-07T10:17:54;13.20;;;10.98;;
12625;SDS011;6378;42.684;23.372;2024-01-07T10:20:21;13.98;;;10.30;;
12625;SDS011;6378;42.684;23.372;2024-01-07T10:22:49;11.73;;;9.57;;
12625;SDS011;6378;42.684;23.372;2024-01-07T10:25:15;11.82;;;8.63;;
12625;SDS011;6378;42.684;23.372;2024-01-07T10:27:41;11.10;;;9.73;;
12625;SDS011;6378;42.684;23.372;2024-01-07T10:30:06;19.20;;;13.10;;
12625;SDS011;6378;42.684;23.372;2024-01-07T10:32:35;19.23;;;14.13;;
12625;SDS011;6378;42.684;23.372;2024-01-07T10:35:04;22.17;;;15.95;;
12625;SDS011;6378;42.684;23.372;2024-01-07T10:37:30;19.48;;;14.15;;
12625;SDS011;6378;42.684;23.372;2024-01-07T10:39:59;11.45;;;9.60;;
12625;SDS011;6378;42.684;23.372;2024-01-07T10:42:31;12.67;;;9.50;;
12625;SDS011;6378;42.684;23.372;2024-01-07T10:44:58;14.90;;;12.23;;
12625;SDS011;6378;42.684;23.372;2024-01-07T10:47:30;18.50;;;12.60;;
12625;SDS011;6378;42.684;23.372;2024-01-07T10:49:57;17.92;;;12.77;;
12625;SDS011;6378;42.684;23.372;2024-01-07T10:52:24;16.50;;;12.03;;
12625;SDS011;6378;42.684;23.372;2024-01-07T10:54:57;13.38;;;11.10;;
12625;SDS011;6378;42.684;23.372;2024-01-07T10:57:34;15.83;;;11.07;;
12625;SDS011;6378;42.684;23.372;2024-01-07T11:00:05;13.63;;;10.85;;
12625;SDS011;6378;42.684;23.372;2024-01-07T11:02:35;17.93;;;13.43;;
12625;SDS011;6378;42.684;23.372;2024-01-07T11:05:18;11.23;;;9.63;;
12625;SDS011;6378;42.684;23.372;2024-01-07T11:11:06;18.23;;;15.18;;
12625;SDS011;6378;42.684;23.372;2024-01-07T11:13:38;20.85;;;15.75;;
12625;SDS011;6378;42.684;23.372;2024-01-07T11:16:07;15.30;;;12.13;;
12625;SDS011;6378;42.684;23.372;2024-01-07T11:18:40;13.85;;;10.05;;
12625;SDS011;6378;42.684;23.372;2024-01-07T11:21:10;13.40;;;9.50;;
12625;SDS011;6378;42.684;23.372;2024-01-07T11:23:37;10.48;;;8.73;;
12625;SDS011;6378;42.684;23.372;2024-01-07T11:26:08;11.48;;;8.75;;
12625;SDS011;6378;42.684;23.372;2024-01-07T11:28:43;11.10;;;8.90;;
12625;SDS011;6378;42.684;23.372;2024-01-07T11:31:09;12.00;;;9.67;;
12625;SDS011;6378;42.684;23.372;2024-01-07T11:33:38;14.43;;;10.67;;
12625;SDS011;6378;42.684;23.372;2024-01-07T11:36:04;13.87;;;9.57;;
12625;SDS011;6378;42.684;23.372;2024-01-07T11:38:30;12.57;;;9.67;;
12625;SDS011;6378;42.684;23.372;2024-01-07T11:40:56;12.90;;;9.80;;
12625;SDS011;6378;42.684;23.372;2024-01-07T11:43:24;12.93;;;9.50;;
12625;SDS011;6378;42.684;23.372;2024-01-07T11:45:49;9.95;;;8.38;;
12625;SDS011;6378;42.684;23.372;2024-01-07T11:48:16;12.32;;;10.23;;
12625;SDS011;6378;42.684;23.372;2024-01-07T11:50:42;13.88;;;10.77;;
12625;SDS011;6378;42.684;23.372;2024-01-07T11:53:08;11.50;;;9.00;;
12625;SDS011;6378;42.684;23.372;2024-01-07T11:55:34;9.27;;;8.27;;
12625;SDS011;6378;42.684;23.372;2024-01-07T11:58:01;13.48;;;7.65;;
12625;SDS011;6378;42.684;23.372;2024-01-07T12:00:30;9.50;;;7.60;;
12625;SDS011;6378;42.684;23.372;2024-01-07T12:02:56;10.40;;;8.00;;
12625;SDS011;6378;42.684;23.372;2024-01-07T12:05:21;15.50;;;8.40;;
12625;SDS011;6378;42.684;23.372;2024-01-07T12:07:47;8.80;;;7.82;;
12625;SDS011;6378;42.684;23.372;2024-01-07T12:10:12;8.90;;;6.00;;
12625;SDS011;6378;42.684;23.372;2024-01-07T12:12:41;8.65;;;6.32;;
12625;SDS011;6378;42.684;23.372;2024-01-07T12:15:07;7.28;;;5.30;;
12625;SDS011;6378;42.684;23.372;2024-01-07T12:17:34;6.95;;;4.65;;
12625;SDS011;6378;42.684;23.372;2024-01-07T12:20:03;6.07;;;4.90;;
12625;SDS011;6378;42.684;23.372;2024-01-07T12:22:30;9.93;;;5.03;;
12625;SDS011;6378;42.684;23.372;2024-01-07T12:25:07;5.28;;;4.38;;
12625;SDS011;6378;42.684;23.372;2024-01-07T12:27:34;13.35;;;5.93;;
12625;SDS011;6378;42.684;23.372;2024-01-07T12:30:00;12.57;;;5.65;;
12625;SDS011;6378;42.684;23.372;2024-01-07T12:32:26;7.10;;;4.68;;
12625;SDS011;6378;42.684;23.372;2024-01-07T12:34:52;7.78;;;4.93;;
12625;SDS011;6378;42.684;23.372;2024-01-07T12:37:18;7.18;;;4.70;;
12625;SDS011;6378;42.684;23.372;2024-01-07T12:39:44;11.43;;;5.65;;
12625;SDS011;6378;42.684;23.372;2024-01-07T12:42:09;7.88;;;5.97;;
12625;SDS011;6378;42.684;23.372;2024-01-07T12:44:38;13.52;;;6.40;;
12625;SDS011;6378;42.684;23.372;2024-01-07T12:47:03;12.48;;;6.38;;
12625;SDS011;6378;42.684;23.372;2024-01-07T12:49:30;9.10;;;5.68;;
12625;SDS011;6378;42.684;23.372;2024-01-07T12:51:55;15.65;;;6.93;;
12625;SDS011;6378;42.684;23.372;2024-01-07T12:54:21;8.45;;;6.15;;
12625;SDS011;6378;42.684;23.372;2024-01-07T12:56:48;10.55;;;6.32;;
12625;SDS011;6378;42.684;23.372;2024-01-07T12:59:13;11.88;;;6.25;;
12625;SDS011;6378;42.684;23.372;2024-01-07T13:01:39;10.63;;;6.63;;
12625;SDS011;6378;42.684;23.372;2024-01-07T13:04:04;10.93;;;6.13;;
12625;SDS011;6378;42.684;23.372;2024-01-07T13:06:30;10.25;;;6.80;;
12625;SDS011;6378;42.684;23.372;2024-01-07T13:09:15;14.65;;;6.85;;
12625;SDS011;6378;42.684;23.372;2024-01-07T13:11:46;14.85;;;8.30;;
12625;SDS011;6378;42.684;23.372;2024-01-07T13:14:12;14.35;;;7.50;;
12625;SDS011;6378;42.684;23.372;2024-01-07T13:16:37;13.35;;;7.43;;
12625;SDS011;6378;42.684;23.372;2024-01-07T13:19:03;8.53;;;7.13;;
12625;SDS011;6378;42.684;23.372;2024-01-07T13:21:32;14.38;;;7.60;;
12625;SDS011;6378;42.684;23.372;2024-01-07T13:23:58;10.70;;;6.80;;
12625;SDS011;6378;42.684;23.372;2024-01-07T13:29:28;13.93;;;7.85;;
12625;SDS011;6378;42.684;23.372;2024-01-07T13:31:54;11.85;;;7.68;;
12625;SDS011;6378;42.684;23.372;2024-01-07T13:37:26;11.00;;;7.20;;
12625;SDS011;6378;42.684;23.372;2024-01-07T13:39:52;9.93;;;6.25;;
12625;SDS011;6378;42.684;23.372;2024-01-07T13:42:17;16.90;;;10.00;;
12625;SDS011;6378;42.684;23.372;2024-01-07T13:47:45;8.30;;;6.60;;
12625;SDS011;6378;42.684;23.372;2024-01-07T13:50:15;12.27;;;6.72;;
12625;SDS011;6378;42.684;23.372;2024-01-07T13:52:55;13.98;;;6.60;;
12625;SDS011;6378;42.684;23.372;2024-01-07T13:55:21;11.57;;;6.45;;
12625;SDS011;6378;42.684;23.372;2024-01-07T13:57:47;8.45;;;5.93;;
12625;SDS011;6378;42.684;23.372;2024-01-07T14:00:13;11.55;;;6.72;;
12625;SDS011;6378;42.684;23.372;2024-01-07T14:02:43;9.65;;;6.85;;
12625;SDS011;6378;42.684;23.372;2024-01-07T14:05:10;7.43;;;6.38;;
12625;SDS011;6378;42.684;23.372;2024-01-07T14:07:36;11.30;;;7.57;;
12625;SDS011;6378;42.684;23.372;2024-01-07T14:10:06;9.68;;;6.20;;
12625;SDS011;6378;42.684;23.372;2024-01-07T14:12:33;9.95;;;6.57;;
12625;SDS011;6378;42.684;23.372;2024-01-07T14:14:59;11.57;;;6.55;;
12625;SDS011;6378;42.684;23.372;2024-01-07T14:17:25;7.70;;;6.63;;
12625;SDS011;6378;42.684;23.372;2024-01-07T14:19:50;10.23;;;6.85;;
12625;SDS011;6378;42.684;23.372;2024-01-07T14:22:18;7.32;;;6.63;;
12625;SDS011;6378;42.684;23.372;2024-01-07T14:24:46;12.85;;;7.28;;
12625;SDS011;6378;42.684;23.372;2024-01-07T14:27:16;9.25;;;7.00;;
12625;SDS011;6378;42.684;23.372;2024-01-07T14:29:42;11.07;;;8.20;;
12625;SDS011;6378;42.684;23.372;2024-01-07T14:32:08;12.77;;;8.73;;
12625;SDS011;6378;42.684;23.372;2024-01-07T14:34:33;10.85;;;8.38;;
12625;SDS011;6378;42.684;23.372;2024-01-07T14:36:59;10.65;;;8.32;;